EDVK/KSF METAR and TAF weather

Enter ICAO airport designator
Station Type Date Time Source
EDVK METAR 2023/02/04 01:50 UTC NOAA

EDVK 040150Z AUTO 29013KT 250V310 9999 // BKN042/// 04/02 Q1028


Station Type Date Time Source
EDVK Decoded METAR 2023/02/04 01:50 UTC NOAA

Kassel / Calden, Germany (EDVK) 51-24N 009-23E 283M
Feb 03, 2023 - 08:50 PM EST / 2023.02.04 0150 UTC
Wind: from the WNW (290 degrees) at 15 MPH (13 KT) (direction variable):0
Visibility: greater than 7 mile(s):0
Sky conditions: mostly cloudy
Temperature: 39 F (4 C)
Dew Point: 35 F (2 C)
Relative Humidity: 86%
Pressure (altimeter): 30.36 in. Hg (1028 hPa)
ob: EDVK 040150Z AUTO 29013KT 250V310 9999 // BKN042/// 04/02 Q1028
cycle: 2

Station Type Date Time Source
EDVK TAF 2011/03/23 07:09 UTC NOAA

TAF COR EDVK 230655Z 2307/2321 30002KT 3500 BR SCT025 PROB30
TEMPO 2307/2309 1400 BCFG
BECMG 2307/2310 01007KT 8000

Example: see airport list